Cockeysville, Maryland
Current Conditions -  °F | °C
As of 7:29 AM on Monday 26 Jan 2015 (Local Time) from KMTN Reporting Station
Light Snow Light Snow  
Wind Chill: 26°   Ceiling: 1100
Heat Index: 34°   Visibility: 3mi
Dew Point: 28°   Wind: 9mph
Humidity: 81%   Direction: 60°ENE
Pressure: 29.87"   Gusts: NA
Location:  39.49°N, 76.65°W
Report Text: KMTN 261229Z 06008KT 020V090 3SM -SN BKN011 OVC016 01/M02 A2987
Loading
Personal Weather Stations






























Interactive Weather Map New forecast layout! Learn more

10-Day Weather Forecast

Advertisements
Track Severe Weather on mobile